Terminal Aerodrome Forecast
Issued by NWS

Home | Current Version | Previous Version | Text Only | Print | Product List | Glossary On
Versions: 1 2 3 4 5 6 7 8 9 10 11 12 13 14 15 16 17
957
FTUS43 KLSX 041741
TAFCPS
TAF
KCPS 041741Z 0418/0518 VRB04KT 3SM -RA OVC007
     FM042000 25005KT P6SM OVC010
     FM042200 27007KT P6SM OVC015
     FM050400 VRB04KT P6SM SCT020
     FM050900 VRB03KT 4SM BR SKC
     FM051500 14007KT P6SM SCT250=

USA.gov is the U.S. government's official web portal to all federal, state and local government web resources and services.